createdAt,value
2018-04-15T00:00:01.319Z,93750.44
2018-04-15T00:02:29.788Z,93750.03
2018-04-15T00:04:58.352Z,93753.90
2018-04-15T00:07:29.000Z,93756.34
2018-04-15T00:09:57.422Z,93758.00
2018-04-15T00:12:25.851Z,93767.86
2018-04-15T00:14:54.333Z,93773.26
2018-04-15T00:17:22.947Z,93767.16
2018-04-15T00:19:53.319Z,93763.27
2018-04-15T00:22:21.763Z,93767.98
2018-04-15T00:24:50.197Z,93768.03
2018-04-15T00:27:18.606Z,93773.81
2018-04-15T00:29:47.103Z,93776.63
2018-04-15T00:32:15.511Z,93774.41
2018-04-15T00:34:43.974Z,93779.02
2018-04-15T00:37:12.454Z,93774.58
2018-04-15T00:39:40.839Z,93776.75
2018-04-15T00:42:09.485Z,93776.28
2018-04-15T00:44:37.880Z,93772.38
2018-04-15T00:47:06.292Z,93770.64
2018-04-15T00:49:34.722Z,93775.23
2018-04-15T00:52:03.138Z,93773.55
2018-04-15T00:54:31.607Z,93772.88
2018-04-15T00:57:01.995Z,93768.48
2018-04-15T00:59:31.288Z,93762.61
2018-04-15T01:01:59.756Z,93767.33
2018-04-15T01:04:28.183Z,93767.09
2018-04-15T01:07:00.857Z,93776.77
2018-04-15T01:09:29.290Z,93781.48
2018-04-15T01:11:57.711Z,93779.96
2018-04-15T01:14:26.163Z,93785.02
2018-04-15T01:16:54.565Z,93787.63
2018-04-15T01:19:22.992Z,93781.83
2018-04-15T01:21:51.451Z,93776.00
2018-04-15T01:24:19.880Z,93778.69
2018-04-15T01:26:48.283Z,93783.64
2018-04-15T01:29:16.711Z,93782.06
2018-04-15T01:31:45.111Z,93783.21
2018-04-15T01:34:13.541Z,93772.06
2018-04-15T01:36:41.975Z,93772.66
2018-04-15T01:39:10.416Z,93772.82
2018-04-15T01:41:38.817Z,93766.92
2018-04-15T01:44:07.390Z,93763.65
2018-04-15T01:46:35.751Z,93766.28
2018-04-15T01:49:04.150Z,93764.56
2018-04-15T01:51:32.575Z,93764.81
2018-04-15T01:54:01.149Z,93771.45
2018-04-15T01:56:29.539Z,93771.59
2018-04-15T01:59:00.016Z,93765.68
2018-04-15T02:01:30.383Z,93767.30
2018-04-15T02:04:02.396Z,93766.44
2018-04-15T02:06:31.043Z,93763.89
2018-04-15T02:09:01.549Z,93767.84
2018-04-15T02:11:29.983Z,93767.43
2018-04-15T02:13:58.593Z,93765.66
2018-04-15T02:16:29.163Z,93765.71
2018-04-15T02:18:57.643Z,93766.47
2018-04-15T02:21:28.047Z,93766.80
2018-04-15T02:23:58.555Z,93763.75
2018-04-15T02:26:27.015Z,93755.09
2018-04-15T02:28:55.426Z,93747.72
2018-04-15T02:31:23.846Z,93744.21
2018-04-15T02:33:52.310Z,93738.58
2018-04-15T02:36:20.886Z,93743.69
2018-04-15T02:38:51.367Z,93739.16
2018-04-15T02:41:19.844Z,93737.09
2018-04-15T02:43:51.712Z,93735.87
2018-04-15T02:46:20.083Z,93729.90
2018-04-15T02:48:48.508Z,93728.92
2018-04-15T02:51:23.016Z,93728.72
2018-04-15T02:53:51.579Z,93725.81
2018-04-15T02:56:24.095Z,93724.67
2018-04-15T02:58:52.858Z,93726.84
2018-04-15T03:01:24.932Z,93711.48
2018-04-15T03:03:53.424Z,93706.50
2018-04-15T03:06:21.811Z,93706.88
2018-04-15T03:08:50.291Z,93716.66
2018-04-15T03:11:19.089Z,93710.51
2018-04-15T03:13:47.528Z,93706.47
2018-04-15T03:16:15.935Z,93707.19
2018-04-15T03:18:44.364Z,93708.47
2018-04-15T03:21:12.775Z,93708.56
2018-04-15T03:23:41.179Z,93712.77
2018-04-15T03:26:09.632Z,93707.89
2018-04-15T03:28:39.416Z,93701.59
2018-04-15T03:31:07.776Z,93695.18
2018-04-15T03:33:39.694Z,93685.92
2018-04-15T03:36:08.179Z,93683.56
2018-04-15T03:38:38.379Z,93681.70
2018-04-15T03:41:08.730Z,93679.62
2018-04-15T03:43:37.141Z,93670.00
2018-04-15T03:46:05.611Z,93668.90
2018-04-15T03:48:34.183Z,93670.52
2018-04-15T03:51:02.652Z,93668.72
2018-04-15T03:53:33.290Z,93669.59
2018-04-15T03:56:03.380Z,93666.60
2018-04-15T03:58:31.735Z,93664.03
2018-04-15T04:01:02.255Z,93657.18
2018-04-15T04:03:30.670Z,93658.89
2018-04-15T04:05:59.077Z,93642.78
2018-04-15T04:08:27.562Z,93646.76
2018-04-15T04:10:55.975Z,93650.98
2018-04-15T04:13:24.427Z,93645.67
2018-04-15T04:15:54.445Z,93646.31
2018-04-15T04:18:29.139Z,93648.52
2018-04-15T04:21:03.636Z,93648.02
2018-04-15T04:23:41.595Z,93641.36
2018-04-15T04:26:12.013Z,93641.34
2018-04-15T04:28:40.448Z,93640.53
2018-04-15T04:31:11.939Z,93631.13
2018-04-15T04:33:41.331Z,93634.86
2018-04-15T04:36:09.734Z,93639.58
2018-04-15T04:38:38.191Z,93633.20
2018-04-15T04:41:06.586Z,93631.43
2018-04-15T04:43:35.009Z,93630.86
2018-04-15T04:46:03.415Z,93637.35
2018-04-15T04:48:31.858Z,93636.78
2018-04-15T04:51:00.301Z,93644.39
2018-04-15T04:53:30.839Z,93645.33
2018-04-15T04:56:01.046Z,93645.10
2018-04-15T04:58:29.468Z,93641.38
2018-04-15T05:00:59.451Z,93642.34
2018-04-15T05:03:29.874Z,93649.95
2018-04-15T05:06:00.384Z,93644.89
2018-04-15T05:08:28.876Z,93646.38
2018-04-15T05:10:59.707Z,93655.16
2018-04-15T05:13:30.290Z,93654.13
2018-04-15T05:16:00.708Z,93656.22
2018-04-15T05:18:31.214Z,93658.16
2018-04-15T05:20:59.624Z,93651.52
2018-04-15T05:23:28.035Z,93646.61
2018-04-15T05:25:56.500Z,93646.25
2018-04-15T05:28:24.919Z,93645.92
2018-04-15T05:30:53.337Z,93641.03
2018-04-15T05:33:21.804Z,93643.45
2018-04-15T05:35:50.194Z,93649.63
2018-04-15T05:38:18.764Z,93641.04
2018-04-15T05:40:47.179Z,93647.51
2018-04-15T05:43:15.593Z,93647.03
2018-04-15T05:45:45.159Z,93653.52
2018-04-15T05:48:14.773Z,93647.52
2018-04-15T05:50:43.245Z,93653.89
2018-04-15T05:53:11.627Z,93649.27
2018-04-15T05:55:40.008Z,93646.90
2018-04-15T05:58:08.454Z,93648.38
2018-04-15T06:00:38.868Z,93646.28
2018-04-15T06:03:08.710Z,93652.06
2018-04-15T06:05:37.151Z,93639.44
2018-04-15T06:08:05.518Z,93636.83
2018-04-15T06:10:35.536Z,93632.83
2018-04-15T06:13:05.368Z,93627.84
2018-04-15T06:15:33.793Z,93628.03
2018-04-15T06:18:02.223Z,93627.58
2018-04-15T06:20:30.649Z,93625.10
2018-04-15T06:22:59.102Z,93629.05
2018-04-15T06:25:29.726Z,93631.35
2018-04-15T06:27:59.787Z,93636.16
2018-04-15T06:30:29.710Z,93637.38
2018-04-15T06:32:58.085Z,93642.83
2018-04-15T06:35:26.541Z,93644.64
2018-04-15T06:37:54.946Z,93633.30
2018-04-15T06:40:23.672Z,93638.05
2018-04-15T06:42:53.259Z,93637.91
2018-04-15T06:45:21.680Z,93631.79
2018-04-15T06:47:50.410Z,93641.03
2018-04-15T06:50:18.848Z,93628.22
2018-04-15T06:52:47.216Z,93631.69
2018-04-15T06:55:15.660Z,93620.81
2018-04-15T06:57:44.122Z,93615.16
2018-04-15T07:00:12.538Z,93616.80
2018-04-15T07:02:42.348Z,93613.24
2018-04-15T07:05:12.090Z,93619.84
2018-04-15T07:07:40.551Z,93609.16
2018-04-15T07:10:10.728Z,93605.10
2018-04-15T07:12:40.570Z,93600.42
2018-04-15T07:15:08.994Z,93604.82
2018-04-15T07:17:37.718Z,93597.74
2018-04-15T07:20:06.134Z,93596.89
2018-04-15T07:22:34.576Z,93587.22
2018-04-15T07:25:03.188Z,93584.58
2018-04-15T07:27:31.628Z,93575.63
2018-04-15T07:30:00.059Z,93576.03
2018-04-15T07:32:27.673Z,93571.20
2018-04-15T07:34:57.124Z,93553.71
2018-04-15T07:37:25.847Z,93560.92
2018-04-15T07:39:55.509Z,93564.71
2018-04-15T07:42:25.051Z,93563.55
2018-04-15T07:44:53.472Z,93566.59
2018-04-15T07:47:21.834Z,93567.86
2018-04-15T07:49:50.435Z,93563.38
2018-04-15T07:52:18.895Z,93567.12
2018-04-15T07:54:47.271Z,93568.16
2018-04-15T07:57:16.819Z,93572.59
2018-04-15T07:59:45.339Z,93563.42
2018-04-15T08:02:14.360Z,93562.53
2018-04-15T08:04:42.024Z,93563.01
2018-04-15T08:07:10.451Z,93558.09
2018-04-15T08:09:38.860Z,93558.09
2018-04-15T08:12:07.323Z,93561.65
2018-04-15T08:14:34.689Z,93562.12
2018-04-15T08:17:03.131Z,93552.84
2018-04-15T08:19:31.562Z,93553.97
2018-04-15T08:22:00.272Z,93549.69
2018-04-15T08:24:28.725Z,93553.44
2018-04-15T08:26:57.156Z,93547.37
2018-04-15T08:29:25.603Z,93555.11
2018-04-15T08:31:54.031Z,93549.92
2018-04-15T08:34:22.766Z,93555.47
2018-04-15T08:36:51.195Z,93560.19
2018-04-15T08:39:19.571Z,93563.66
2018-04-15T08:41:47.996Z,93559.44
2018-04-15T08:44:17.483Z,93558.25
2018-04-15T08:46:47.248Z,93554.31
2018-04-15T08:49:15.610Z,93553.30
2018-04-15T08:51:44.035Z,93548.00
2018-04-15T08:54:13.787Z,93548.55
2018-04-15T08:56:45.355Z,93553.55
2018-04-15T08:59:13.808Z,93543.79
2018-04-15T09:01:42.224Z,93533.37
2018-04-15T09:04:10.896Z,93537.13
2018-04-15T09:06:40.338Z,93540.44
2018-04-15T09:09:08.795Z,93550.03
2018-04-15T09:11:37.277Z,93547.30
2018-04-15T09:14:05.711Z,93541.47
2018-04-15T09:16:34.127Z,93539.01
2018-04-15T09:19:03.590Z,93530.91
2018-04-15T09:21:33.092Z,93525.08
2018-04-15T09:24:02.683Z,93533.72
2018-04-15T09:26:31.108Z,93529.31
2018-04-15T09:29:00.684Z,93531.20
2018-04-15T09:31:31.010Z,93528.25
2018-04-15T09:33:59.508Z,93523.75
2018-04-15T09:36:27.895Z,93525.01
2018-04-15T09:38:56.321Z,93529.17
2018-04-15T09:41:25.835Z,93529.77
2018-04-15T09:43:55.233Z,93525.80
2018-04-15T09:46:24.640Z,93518.23
2018-04-15T09:48:53.099Z,93508.17
2018-04-15T09:51:21.844Z,93513.44
2018-04-15T09:53:50.214Z,93498.48
2018-04-15T09:56:19.764Z,93498.87
2018-04-15T09:58:48.326Z,93509.93
2018-04-15T10:01:16.740Z,93508.64
2018-04-15T10:03:45.109Z,93503.28
2018-04-15T10:06:17.335Z,93495.84
2018-04-15T10:08:45.836Z,93490.57
2018-04-15T10:11:14.249Z,93493.41
2018-04-15T10:13:42.715Z,93499.66
2018-04-15T10:16:12.140Z,93496.27
2018-04-15T10:18:40.550Z,93499.17
2018-04-15T10:21:10.166Z,93493.92
2018-04-15T10:23:38.639Z,93495.45
2018-04-15T10:26:07.078Z,93485.55
2018-04-15T10:28:36.787Z,93485.04
2018-04-15T10:31:05.234Z,93494.16
2018-04-15T10:33:33.667Z,93493.42
2018-04-15T10:36:03.612Z,93493.02
2018-04-15T10:38:32.056Z,93491.97
2018-04-15T10:41:00.686Z,93490.40
2018-04-15T10:43:29.087Z,93488.69
2018-04-15T10:45:57.515Z,93494.66
2018-04-15T10:48:25.952Z,93499.07
2018-04-15T10:50:54.502Z,93491.23
2018-04-15T10:53:22.960Z,93493.75
2018-04-15T10:55:51.374Z,93489.03
2018-04-15T10:58:20.091Z,93498.00
2018-04-15T11:00:48.525Z,93489.52
2018-04-15T11:03:18.328Z,93490.30
2018-04-15T11:05:46.771Z,93491.61
2018-04-15T11:08:15.185Z,93484.45
2018-04-15T11:10:45.249Z,93481.16
2018-04-15T11:13:13.663Z,93482.36
2018-04-15T11:15:42.099Z,93473.95
2018-04-15T11:18:10.535Z,93482.52
2018-04-15T11:20:39.032Z,93473.86
2018-04-15T11:23:08.784Z,93469.53
2018-04-15T11:25:37.213Z,93469.53
2018-04-15T11:28:08.548Z,93477.06
2018-04-15T11:30:36.978Z,93468.07
2018-04-15T11:33:05.363Z,93463.20
2018-04-15T11:35:33.779Z,93462.23
2018-04-15T11:38:02.234Z,93458.98
2018-04-15T11:40:32.212Z,93459.78
2018-04-15T11:43:00.643Z,93454.56
2018-04-15T11:45:29.109Z,93444.27
2018-04-15T11:47:57.569Z,93448.19
2018-04-15T11:50:25.977Z,93436.05
2018-04-15T11:52:55.509Z,93428.45
2018-04-15T11:55:25.503Z,93430.37
2018-04-15T11:57:53.939Z,93429.07
2018-04-15T12:00:22.585Z,93424.94
2018-04-15T12:02:51.031Z,93420.23
2018-04-15T12:05:19.433Z,93418.21
2018-04-15T12:07:47.900Z,93411.48
2018-04-15T12:10:16.311Z,93410.41
2018-04-15T12:12:45.779Z,93404.09
2018-04-15T12:15:15.767Z,93407.39
2018-04-15T12:17:44.259Z,93401.25
2018-04-15T12:20:13.507Z,93392.56
2018-04-15T12:22:42.032Z,93386.38
2018-04-15T12:25:10.420Z,93378.01
2018-04-15T12:27:38.821Z,93373.19
2018-04-15T12:30:08.337Z,93364.73
2018-04-15T12:32:36.778Z,93362.72
2018-04-15T12:35:05.393Z,93357.92
2018-04-15T12:37:35.232Z,93354.95
2018-04-15T12:40:03.668Z,93346.33
2018-04-15T12:42:32.142Z,93346.52
2018-04-15T12:45:00.516Z,93345.46
2018-04-15T12:47:31.931Z,93338.38
2018-04-15T12:50:00.347Z,93333.01
2018-04-15T12:52:28.716Z,93332.60
2018-04-15T12:54:58.515Z,93324.59
2018-04-15T12:57:26.919Z,93334.72
2018-04-15T12:59:55.356Z,93334.45
2018-04-15T13:02:24.052Z,93332.20
2018-04-15T13:04:52.480Z,93332.72
2018-04-15T13:07:20.943Z,93338.57
2018-04-15T13:09:49.378Z,93340.22
2018-04-15T13:12:18.816Z,93337.84
2018-04-15T13:14:47.407Z,93347.66
2018-04-15T13:17:15.794Z,93345.23
2018-04-15T13:19:45.237Z,93334.73
2018-04-15T13:22:13.850Z,93336.38
2018-04-15T13:24:42.283Z,93333.47
2018-04-15T13:27:10.715Z,93330.11
2018-04-15T13:29:39.135Z,93334.14
2018-04-15T13:32:07.565Z,93329.60
2018-04-15T13:34:36.040Z,93330.59
2018-04-15T13:37:05.516Z,93333.73
2018-04-15T13:39:34.079Z,93334.83
2018-04-15T13:42:02.508Z,93331.73
2018-04-15T13:44:30.834Z,93327.74
2018-04-15T13:46:59.505Z,93313.36
2018-04-15T13:49:27.899Z,93307.91
2018-04-15T13:51:56.315Z,93311.91
2018-04-15T13:54:24.735Z,93307.17
2018-04-15T13:56:53.125Z,93302.26
2018-04-15T13:59:22.897Z,93298.68
2018-04-15T14:01:51.292Z,93296.78
2018-04-15T14:04:20.905Z,93290.92
2018-04-15T14:06:50.772Z,93288.76
2018-04-15T14:09:19.168Z,93288.19
2018-04-15T14:11:50.103Z,93288.06
2018-04-15T14:14:18.464Z,93277.63
2018-04-15T14:16:47.973Z,93277.34
2018-04-15T14:19:17.453Z,93278.75
2018-04-15T14:21:47.118Z,93275.47
2018-04-15T14:24:15.511Z,93275.79
2018-04-15T14:26:43.943Z,93276.06
2018-04-15T14:29:12.380Z,93273.91
2018-04-15T14:31:41.939Z,93276.55
2018-04-15T14:34:10.407Z,93281.13
2018-04-15T14:36:38.830Z,93258.38
2018-04-15T14:39:08.315Z,93268.95
2018-04-15T14:41:38.164Z,93270.41
2018-04-15T14:44:08.443Z,93266.39
2018-04-15T14:46:36.891Z,93257.19
2018-04-15T14:49:06.534Z,93256.61
2018-04-15T14:51:34.996Z,93254.06
2018-04-15T14:54:03.416Z,93246.74
2018-04-15T14:56:31.879Z,93254.89
2018-04-15T14:59:01.743Z,93256.25
2018-04-15T15:01:30.171Z,93255.23
2018-04-15T15:03:58.575Z,93257.72
2018-04-15T15:06:26.984Z,93255.10
2018-04-15T15:08:56.499Z,93252.44
2018-04-15T15:11:26.368Z,93247.87
2018-04-15T15:13:54.827Z,93246.61
2018-04-15T15:16:23.409Z,93255.20
2018-04-15T15:18:51.875Z,93240.77
2018-04-15T15:21:20.299Z,93241.08
2018-04-15T15:23:48.726Z,93240.30
2018-04-15T15:26:17.146Z,93247.00
2018-04-15T15:28:48.267Z,93241.00
2018-04-15T15:31:18.107Z,93227.98
2018-04-15T15:33:47.602Z,93229.71
2018-04-15T15:36:17.831Z,93223.41
2018-04-15T15:38:47.273Z,93221.78
2018-04-15T15:41:15.771Z,93219.56
2018-04-15T15:43:45.438Z,93214.92
2018-04-15T15:46:13.849Z,93219.06
2018-04-15T15:48:42.201Z,93221.09
2018-04-15T15:51:10.656Z,93228.27
2018-04-15T15:53:39.048Z,93227.09
2018-04-15T15:56:08.498Z,93226.04
2018-04-15T15:58:36.898Z,93226.70
2018-04-15T16:01:05.405Z,93230.56
2018-04-15T16:03:34.531Z,93226.48
2018-04-15T16:06:04.263Z,93228.99
2018-04-15T16:08:33.694Z,93228.22
2018-04-15T16:11:02.084Z,93231.09
2018-04-15T16:13:30.484Z,93230.86
2018-04-15T16:15:58.881Z,93233.78
2018-04-15T16:18:27.216Z,93226.98
2018-04-15T16:20:55.883Z,93219.78
2018-04-15T16:23:24.308Z,93218.81
2018-04-15T16:25:52.704Z,93224.06
2018-04-15T16:28:22.586Z,93226.88
2018-04-15T16:30:50.951Z,93228.72
2018-04-15T16:33:21.103Z,93238.26
2018-04-15T16:35:49.475Z,93242.60
2018-04-15T16:38:17.843Z,93239.27
2018-04-15T16:40:46.275Z,93238.59
2018-04-15T16:43:14.755Z,93236.63
2018-04-15T16:45:43.127Z,93237.59
2018-04-15T16:48:11.515Z,93235.98
2018-04-15T16:50:41.655Z,93243.81
2018-04-15T16:53:10.047Z,93247.77
2018-04-15T16:55:38.422Z,93243.23
2018-04-15T16:58:06.852Z,93244.86
2018-04-15T17:00:35.218Z,93244.80
2018-04-15T17:03:03.548Z,93248.54
2018-04-15T17:05:31.918Z,93250.83
2018-04-15T17:08:00.339Z,93255.67
2018-04-15T17:10:28.717Z,93249.59
2018-04-15T17:12:57.058Z,93249.41
2018-04-15T17:15:25.449Z,93256.88
2018-04-15T17:17:53.888Z,93255.77
2018-04-15T17:20:22.483Z,93257.86
2018-04-15T17:22:50.846Z,93256.18
2018-04-15T17:25:21.253Z,93263.78
2018-04-15T17:27:49.654Z,93269.77
2018-04-15T17:30:18.034Z,93272.55
2018-04-15T17:32:46.407Z,93279.14
2018-04-15T17:35:14.808Z,93283.38
2018-04-15T17:37:45.313Z,93280.52
2018-04-15T17:40:13.731Z,93282.66
2018-04-15T17:42:42.132Z,93282.56
2018-04-15T17:45:12.068Z,93290.17
2018-04-15T17:47:41.251Z,93294.14
2018-04-15T17:50:09.648Z,93295.69
2018-04-15T17:52:37.972Z,93293.80
2018-04-15T17:55:08.182Z,93299.17
2018-04-15T17:57:36.599Z,93301.31
2018-04-15T18:00:05.278Z,93298.48
2018-04-15T18:02:34.651Z,93304.31
2018-04-15T18:05:03.022Z,93298.72
2018-04-15T18:07:31.459Z,93306.40
2018-04-15T18:09:59.843Z,93303.23
2018-04-15T18:12:28.283Z,93299.70
2018-04-15T18:14:56.953Z,93302.65
2018-04-15T18:17:29.445Z,93302.77
2018-04-15T18:19:57.815Z,93304.54
2018-04-15T18:22:26.185Z,93303.81
2018-04-15T18:24:54.762Z,93308.99
2018-04-15T18:27:25.234Z,93302.83
2018-04-15T18:29:53.581Z,93304.15
2018-04-15T18:32:24.104Z,93307.31
2018-04-15T18:34:52.515Z,93317.34
2018-04-15T18:37:20.983Z,93317.29
2018-04-15T18:39:50.965Z,93320.34
2018-04-15T18:42:19.363Z,93324.09
2018-04-15T18:44:49.844Z,93320.74
2018-04-15T18:47:18.247Z,93321.04
2018-04-15T18:49:46.682Z,93322.75
2018-04-15T18:52:15.074Z,93321.25
2018-04-15T18:54:43.489Z,93321.66
2018-04-15T18:57:11.910Z,93326.88
2018-04-15T18:59:42.046Z,93329.97
2018-04-15T19:02:10.561Z,93323.27
2018-04-15T19:04:38.954Z,93326.55
2018-04-15T19:07:07.338Z,93332.52
2018-04-15T19:09:35.711Z,93329.02
2018-04-15T19:12:04.095Z,93334.56
2018-04-15T19:14:34.544Z,93346.58
2018-04-15T19:17:06.739Z,93354.68
2018-04-15T19:19:35.235Z,93352.59
2018-04-15T19:22:03.824Z,93364.75
2018-04-15T19:24:32.255Z,93361.48
2018-04-15T19:27:00.632Z,93358.09
2018-04-15T19:29:29.058Z,93358.87
2018-04-15T19:31:57.442Z,93358.01
2018-04-15T19:34:27.899Z,93365.95
2018-04-15T19:36:58.251Z,93362.58
2018-04-15T19:39:28.819Z,93365.48
2018-04-15T19:41:57.234Z,93373.20
2018-04-15T19:44:29.215Z,93381.72
2018-04-15T19:46:57.699Z,93375.83
2018-04-15T19:49:26.107Z,93375.83
2018-04-15T19:51:54.567Z,93379.26
2018-04-15T19:54:23.002Z,93383.05
2018-04-15T19:56:51.526Z,93383.05
2018-04-15T19:59:22.592Z,93387.34
2018-04-15T20:01:53.009Z,93384.52
2018-04-15T20:04:21.395Z,93382.88
2018-04-15T20:06:49.749Z,93383.05
2018-04-15T20:09:20.148Z,93389.17
2018-04-15T20:11:48.584Z,93390.73
2018-04-15T20:14:16.985Z,93391.42
2018-04-15T20:16:45.399Z,93390.75
2018-04-15T20:19:15.927Z,93398.92
2018-04-15T20:21:44.389Z,93399.37
2018-04-15T20:24:14.995Z,93413.81
2018-04-15T20:26:43.387Z,93415.56
2018-04-15T20:29:13.612Z,93411.50
2018-04-15T20:31:41.979Z,93413.56
2018-04-15T20:34:10.395Z,93416.78
2018-04-15T20:36:38.815Z,93420.86
2018-04-15T20:39:07.256Z,93423.69
2018-04-15T20:41:37.367Z,93422.14
2018-04-15T20:44:05.851Z,93422.13
2018-04-15T20:46:36.207Z,93426.42
2018-04-15T20:49:04.587Z,93425.80
2018-04-15T20:51:34.685Z,93422.75
2018-04-15T20:54:03.048Z,93425.42
2018-04-15T20:56:31.483Z,93424.98
2018-04-15T20:58:59.856Z,93432.56
2018-04-15T21:01:29.953Z,93432.95
2018-04-15T21:03:58.378Z,93428.00
2018-04-15T21:06:26.783Z,93425.80
2018-04-15T21:08:55.181Z,93433.33
2018-04-15T21:11:25.315Z,93434.00
2018-04-15T21:13:53.727Z,93441.74
2018-04-15T21:16:22.078Z,93441.23
2018-04-15T21:18:54.065Z,93443.22
2018-04-15T21:21:22.463Z,93441.66
2018-04-15T21:23:50.809Z,93436.56
2018-04-15T21:26:19.203Z,93440.36
2018-04-15T21:28:47.516Z,93435.28
2018-04-15T21:31:15.902Z,93438.28
2018-04-15T21:33:44.211Z,93434.45
2018-04-15T21:36:12.670Z,93429.08
2018-04-15T21:38:41.143Z,93424.80
2018-04-15T21:41:13.575Z,93426.52
2018-04-15T21:43:45.456Z,93427.76
2018-04-15T21:46:13.848Z,93432.77
2018-04-15T21:48:42.337Z,93426.36
2018-04-15T21:51:10.724Z,93429.58
2018-04-15T21:53:39.053Z,93429.63
2018-04-15T21:56:07.479Z,93431.58
2018-04-15T21:58:37.424Z,93432.39
2018-04-15T22:01:05.844Z,93430.56
2018-04-15T22:03:35.931Z,93426.18
2018-04-15T22:06:04.379Z,93423.77
2018-04-15T22:08:34.864Z,93426.31
2018-04-15T22:11:03.247Z,93426.72
2018-04-15T22:13:31.628Z,93433.20
2018-04-15T22:16:01.571Z,93432.16
2018-04-15T22:18:29.979Z,93440.27
2018-04-15T22:21:00.415Z,93434.72
2018-04-15T22:23:36.454Z,93444.58
2018-04-15T22:26:04.854Z,93440.33
2018-04-15T22:28:33.278Z,93445.23
2018-04-15T22:31:05.380Z,93446.23
2018-04-15T22:33:35.802Z,93444.44
2018-04-15T22:36:04.171Z,93442.86
2018-04-15T22:38:36.299Z,93443.41
2018-04-15T22:41:04.700Z,93442.60
2018-04-15T22:43:36.760Z,93436.27
2018-04-15T22:46:05.155Z,93438.03
2018-04-15T23:01:58.991Z,93442.60
2018-04-15T23:04:27.452Z,93436.58
2018-04-15T23:06:57.926Z,93445.28
2018-04-15T23:09:28.145Z,93452.73
2018-04-15T23:12:01.675Z,93454.70
2018-04-15T23:14:31.690Z,93447.71
2018-04-15T23:17:02.207Z,93446.99
2018-04-15T23:19:30.567Z,93448.98
2018-04-15T23:21:59.199Z,93446.42
2018-04-15T23:24:27.559Z,93446.55
2018-04-15T23:26:55.967Z,93448.58
2018-04-15T23:29:26.485Z,93448.81
2018-04-15T23:31:54.881Z,93449.23
2018-04-15T23:34:31.574Z,93453.48
2018-04-15T23:36:59.966Z,93459.83
2018-04-15T23:39:28.376Z,93460.02
2018-04-15T23:41:56.884Z,93452.57
2018-04-15T23:44:25.317Z,93453.54
2018-04-15T23:46:53.764Z,93467.21
2018-04-15T23:49:22.201Z,93461.65
2018-04-15T23:51:50.607Z,93464.27
2018-04-15T23:54:19.042Z,93463.83
2018-04-15T23:56:54.302Z,93464.48
2018-04-15T23:59:22.708Z,93460.99
